sensor_id;sensor_type;location;lat;lon;timestamp;pressure;altitude;pressure_sealevel;temperature;humidity
22335;BME280;11335;43.848;25.958;2023-07-31T00:01:56;100395.63;;;26.15;100.00
22335;BME280;11335;43.848;25.958;2023-07-31T00:04:41;100402.28;;;26.41;100.00
22335;BME280;11335;43.848;25.958;2023-07-31T00:07:27;100397.53;;;26.24;100.00
22335;BME280;11335;43.848;25.958;2023-07-31T00:10:13;100414.28;;;26.37;100.00
22335;BME280;11335;43.848;25.958;2023-07-31T00:12:59;100409.22;;;26.43;100.00
22335;BME280;11335;43.848;25.958;2023-07-31T00:15:44;100401.00;;;26.15;100.00
22335;BME280;11335;43.848;25.958;2023-07-31T00:18:30;100393.84;;;26.25;100.00
22335;BME280;11335;43.848;25.958;2023-07-31T00:21:16;100393.00;;;26.54;100.00
22335;BME280;11335;43.848;25.958;2023-07-31T00:24:01;100397.47;;;26.65;100.00
22335;BME280;11335;43.848;25.958;2023-07-31T00:26:47;100404.72;;;26.44;100.00
22335;BME280;11335;43.848;25.958;2023-07-31T00:29:33;100401.41;;;26.40;100.00
22335;BME280;11335;43.848;25.958;2023-07-31T00:32:19;100395.81;;;26.23;100.00
22335;BME280;11335;43.848;25.958;2023-07-31T00:35:05;100411.91;;;26.13;100.00
22335;BME280;11335;43.848;25.958;2023-07-31T00:37:50;100410.47;;;26.09;100.00
22335;BME280;11335;43.848;25.958;2023-07-31T00:40:36;100397.34;;;26.16;100.00
22335;BME280;11335;43.848;25.958;2023-07-31T00:43:22;100396.97;;;26.30;100.00
22335;BME280;11335;43.848;25.958;2023-07-31T00:46:08;100401.94;;;26.04;100.00
22335;BME280;11335;43.848;25.958;2023-07-31T00:48:54;100404.13;;;25.79;100.00
22335;BME280;11335;43.848;25.958;2023-07-31T00:51:40;100401.44;;;25.58;100.00
22335;BME280;11335;43.848;25.958;2023-07-31T00:54:26;100399.25;;;25.52;100.00
22335;BME280;11335;43.848;25.958;2023-07-31T00:57:12;100396.31;;;25.55;100.00
22335;BME280;11335;43.848;25.958;2023-07-31T00:59:58;100377.88;;;25.62;100.00
22335;BME280;11335;43.848;25.958;2023-07-31T01:02:44;100391.63;;;25.48;100.00
22335;BME280;11335;43.848;25.958;2023-07-31T01:08:47;100378.88;;;25.18;100.00
22335;BME280;11335;43.848;25.958;2023-07-31T01:12:14;100372.28;;;25.22;100.00
22335;BME280;11335;43.848;25.958;2023-07-31T01:17:49;100373.78;;;25.04;100.00
22335;BME280;11335;43.848;25.958;2023-07-31T01:20:36;100382.16;;;25.22;100.00
22335;BME280;11335;43.848;25.958;2023-07-31T01:26:36;100369.19;;;25.06;100.00
22335;BME280;11335;43.848;25.958;2023-07-31T01:32:50;100371.16;;;24.93;100.00
22335;BME280;11335;43.848;25.958;2023-07-31T01:35:38;100369.19;;;24.95;100.00
22335;BME280;11335;43.848;25.958;2023-07-31T01:38:24;100376.53;;;24.93;100.00
22335;BME280;11335;43.848;25.958;2023-07-31T01:41:09;100378.25;;;24.83;100.00
22335;BME280;11335;43.848;25.958;2023-07-31T01:43:55;100379.84;;;24.42;100.00
22335;BME280;11335;43.848;25.958;2023-07-31T01:46:41;100386.81;;;24.66;100.00
22335;BME280;11335;43.848;25.958;2023-07-31T01:49:26;100392.50;;;24.29;100.00
22335;BME280;11335;43.848;25.958;2023-07-31T01:52:12;100397.38;;;23.78;100.00
22335;BME280;11335;43.848;25.958;2023-07-31T01:54:58;100408.19;;;23.42;100.00
22335;BME280;11335;43.848;25.958;2023-07-31T01:57:44;100399.34;;;23.76;100.00
22335;BME280;11335;43.848;25.958;2023-07-31T02:00:29;100405.50;;;23.66;100.00
22335;BME280;11335;43.848;25.958;2023-07-31T02:03:15;100412.28;;;22.75;100.00
22335;BME280;11335;43.848;25.958;2023-07-31T02:06:01;100413.75;;;22.79;100.00
22335;BME280;11335;43.848;25.958;2023-07-31T02:08:47;100410.84;;;23.18;100.00
22335;BME280;11335;43.848;25.958;2023-07-31T02:11:32;100409.75;;;23.33;100.00
22335;BME280;11335;43.848;25.958;2023-07-31T02:14:18;100419.81;;;23.30;100.00
22335;BME280;11335;43.848;25.958;2023-07-31T02:17:04;100418.06;;;23.52;100.00
22335;BME280;11335;43.848;25.958;2023-07-31T02:19:50;55571.53;;;-140.66;100.00
22335;BME280;11335;43.848;25.958;2023-07-31T02:22:36;55571.53;;;-140.66;100.00
22335;BME280;11335;43.848;25.958;2023-07-31T02:25:21;55571.53;;;-140.66;100.00
22335;BME280;11335;43.848;25.958;2023-07-31T02:28:07;55571.53;;;-140.66;100.00
22335;BME280;11335;43.848;25.958;2023-07-31T02:30:53;55571.53;;;-140.66;100.00
22335;BME280;11335;43.848;25.958;2023-07-31T02:33:38;55571.53;;;-140.66;100.00
22335;BME280;11335;43.848;25.958;2023-07-31T02:36:24;55571.53;;;-140.66;100.00
22335;BME280;11335;43.848;25.958;2023-07-31T02:39:10;55571.53;;;-140.66;100.00
22335;BME280;11335;43.848;25.958;2023-07-31T02:41:56;55571.53;;;-140.66;100.00
22335;BME280;11335;43.848;25.958;2023-07-31T02:44:41;55571.53;;;-140.66;100.00
22335;BME280;11335;43.848;25.958;2023-07-31T02:47:27;55571.53;;;-140.66;100.00
22335;BME280;11335;43.848;25.958;2023-07-31T02:50:13;55571.53;;;-140.66;100.00
22335;BME280;11335;43.848;25.958;2023-07-31T02:52:59;55571.53;;;-140.66;100.00
22335;BME280;11335;43.848;25.958;2023-07-31T02:55:44;55571.53;;;-140.66;100.00
22335;BME280;11335;43.848;25.958;2023-07-31T02:58:30;55571.53;;;-140.66;100.00
22335;BME280;11335;43.848;25.958;2023-07-31T03:01:16;55571.53;;;-140.66;100.00
22335;BME280;11335;43.848;25.958;2023-07-31T03:04:01;55571.53;;;-140.66;100.00
22335;BME280;11335;43.848;25.958;2023-07-31T03:06:47;55571.53;;;-140.66;100.00
22335;BME280;11335;43.848;25.958;2023-07-31T03:09:33;55571.53;;;-140.66;100.00
22335;BME280;11335;43.848;25.958;2023-07-31T03:12:18;55571.53;;;-140.66;100.00
22335;BME280;11335;43.848;25.958;2023-07-31T03:15:05;55571.53;;;-140.66;100.00
22335;BME280;11335;43.848;25.958;2023-07-31T03:17:51;55571.53;;;-140.66;100.00
22335;BME280;11335;43.848;25.958;2023-07-31T03:20:37;55571.53;;;-140.66;100.00
22335;BME280;11335;43.848;25.958;2023-07-31T03:23:24;55571.53;;;-140.66;100.00
22335;BME280;11335;43.848;25.958;2023-07-31T03:26:10;55571.53;;;-140.66;100.00
22335;BME280;11335;43.848;25.958;2023-07-31T03:28:56;55571.53;;;-140.66;100.00
22335;BME280;11335;43.848;25.958;2023-07-31T03:31:42;55571.53;;;-140.66;100.00
22335;BME280;11335;43.848;25.958;2023-07-31T03:34:28;55571.53;;;-140.66;100.00
22335;BME280;11335;43.848;25.958;2023-07-31T03:37:14;55571.53;;;-140.66;100.00
22335;BME280;11335;43.848;25.958;2023-07-31T03:40:00;55571.53;;;-140.66;100.00
22335;BME280;11335;43.848;25.958;2023-07-31T03:42:46;55571.53;;;-140.66;100.00
22335;BME280;11335;43.848;25.958;2023-07-31T03:45:31;55571.53;;;-140.66;100.00
22335;BME280;11335;43.848;25.958;2023-07-31T03:48:17;55571.53;;;-140.66;100.00
22335;BME280;11335;43.848;25.958;2023-07-31T03:51:03;55571.53;;;-140.66;100.00
22335;BME280;11335;43.848;25.958;2023-07-31T03:53:48;55571.53;;;-140.66;100.00
22335;BME280;11335;43.848;25.958;2023-07-31T03:56:34;55571.53;;;-140.66;100.00
22335;BME280;11335;43.848;25.958;2023-07-31T03:59:20;55571.53;;;-140.66;100.00
22335;BME280;11335;43.848;25.958;2023-07-31T04:02:06;55571.53;;;-140.66;100.00
22335;BME280;11335;43.848;25.958;2023-07-31T04:04:51;55571.53;;;-140.66;100.00
22335;BME280;11335;43.848;25.958;2023-07-31T04:07:37;55571.53;;;-140.66;100.00
22335;BME280;11335;43.848;25.958;2023-07-31T04:10:23;55571.53;;;-140.66;100.00
22335;BME280;11335;43.848;25.958;2023-07-31T04:13:09;55571.53;;;-140.66;100.00
22335;BME280;11335;43.848;25.958;2023-07-31T04:15:54;55571.53;;;-140.66;100.00
22335;BME280;11335;43.848;25.958;2023-07-31T04:18:40;55571.53;;;-140.66;100.00
22335;BME280;11335;43.848;25.958;2023-07-31T04:21:26;55571.53;;;-140.66;100.00
22335;BME280;11335;43.848;25.958;2023-07-31T04:24:11;55571.53;;;-140.66;100.00
22335;BME280;11335;43.848;25.958;2023-07-31T04:26:57;55571.53;;;-140.66;100.00
22335;BME280;11335;43.848;25.958;2023-07-31T04:29:43;55571.53;;;-140.66;100.00
22335;BME280;11335;43.848;25.958;2023-07-31T04:32:31;55571.53;;;-140.66;100.00
22335;BME280;11335;43.848;25.958;2023-07-31T04:35:17;55571.53;;;-140.66;100.00
22335;BME280;11335;43.848;25.958;2023-07-31T04:38:02;55571.53;;;-140.66;100.00
22335;BME280;11335;43.848;25.958;2023-07-31T04:40:48;55571.53;;;-140.66;100.00
22335;BME280;11335;43.848;25.958;2023-07-31T04:43:34;55571.53;;;-140.66;100.00
22335;BME280;11335;43.848;25.958;2023-07-31T04:46:20;55571.53;;;-140.66;100.00
22335;BME280;11335;43.848;25.958;2023-07-31T04:49:06;55571.53;;;-140.66;100.00
22335;BME280;11335;43.848;25.958;2023-07-31T04:51:51;55571.53;;;-140.66;100.00
22335;BME280;11335;43.848;25.958;2023-07-31T04:54:37;55571.53;;;-140.66;100.00
22335;BME280;11335;43.848;25.958;2023-07-31T04:57:23;55571.53;;;-140.66;100.00
22335;BME280;11335;43.848;25.958;2023-07-31T05:00:09;55571.53;;;-140.66;100.00
22335;BME280;11335;43.848;25.958;2023-07-31T05:02:55;55571.53;;;-140.66;100.00
22335;BME280;11335;43.848;25.958;2023-07-31T05:05:40;55571.53;;;-140.66;100.00
22335;BME280;11335;43.848;25.958;2023-07-31T05:08:26;55571.53;;;-140.66;100.00
22335;BME280;11335;43.848;25.958;2023-07-31T05:11:12;55571.53;;;-140.66;100.00
22335;BME280;11335;43.848;25.958;2023-07-31T05:13:58;55571.53;;;-140.66;100.00
22335;BME280;11335;43.848;25.958;2023-07-31T05:16:43;55571.53;;;-140.66;100.00
22335;BME280;11335;43.848;25.958;2023-07-31T05:19:29;55571.53;;;-140.66;100.00
22335;BME280;11335;43.848;25.958;2023-07-31T05:22:15;55571.53;;;-140.66;100.00
22335;BME280;11335;43.848;25.958;2023-07-31T05:25:01;55571.53;;;-140.66;100.00
22335;BME280;11335;43.848;25.958;2023-07-31T05:27:46;55571.53;;;-140.66;100.00
22335;BME280;11335;43.848;25.958;2023-07-31T05:30:32;55571.53;;;-140.66;100.00
22335;BME280;11335;43.848;25.958;2023-07-31T05:33:18;55571.53;;;-140.66;100.00
22335;BME280;11335;43.848;25.958;2023-07-31T05:36:04;55571.53;;;-140.66;100.00
22335;BME280;11335;43.848;25.958;2023-07-31T05:38:49;55571.53;;;-140.66;100.00
22335;BME280;11335;43.848;25.958;2023-07-31T05:41:35;55571.53;;;-140.66;100.00
22335;BME280;11335;43.848;25.958;2023-07-31T05:44:21;55571.53;;;-140.66;100.00
22335;BME280;11335;43.848;25.958;2023-07-31T05:47:07;55571.53;;;-140.66;100.00
22335;BME280;11335;43.848;25.958;2023-07-31T05:49:53;55571.53;;;-140.66;100.00
22335;BME280;11335;43.848;25.958;2023-07-31T05:52:38;55571.53;;;-140.66;100.00
22335;BME280;11335;43.848;25.958;2023-07-31T05:55:24;55571.53;;;-140.66;100.00
22335;BME280;11335;43.848;25.958;2023-07-31T05:58:12;55571.53;;;-140.66;100.00
22335;BME280;11335;43.848;25.958;2023-07-31T06:00:58;55571.53;;;-140.66;100.00
22335;BME280;11335;43.848;25.958;2023-07-31T06:03:44;55571.53;;;-140.66;100.00
22335;BME280;11335;43.848;25.958;2023-07-31T06:06:30;55571.53;;;-140.66;100.00
22335;BME280;11335;43.848;25.958;2023-07-31T06:09:16;55571.53;;;-140.66;100.00
22335;BME280;11335;43.848;25.958;2023-07-31T06:12:02;55571.53;;;-140.66;100.00
22335;BME280;11335;43.848;25.958;2023-07-31T06:14:48;55571.53;;;-140.66;100.00
22335;BME280;11335;43.848;25.958;2023-07-31T06:17:33;55571.53;;;-140.66;100.00
22335;BME280;11335;43.848;25.958;2023-07-31T06:20:19;55571.53;;;-140.66;100.00
22335;BME280;11335;43.848;25.958;2023-07-31T06:23:05;55571.53;;;-140.66;100.00
22335;BME280;11335;43.848;25.958;2023-07-31T06:25:51;55571.53;;;-140.66;100.00
22335;BME280;11335;43.848;25.958;2023-07-31T06:28:36;55571.53;;;-140.66;100.00
22335;BME280;11335;43.848;25.958;2023-07-31T06:31:22;55571.53;;;-140.66;100.00
22335;BME280;11335;43.848;25.958;2023-07-31T06:34:08;55571.53;;;-140.66;100.00
22335;BME280;11335;43.848;25.958;2023-07-31T06:36:56;55571.53;;;-140.66;100.00
22335;BME280;11335;43.848;25.958;2023-07-31T06:39:41;55571.53;;;-140.66;100.00
22335;BME280;11335;43.848;25.958;2023-07-31T06:42:27;55571.53;;;-140.66;100.00
22335;BME280;11335;43.848;25.958;2023-07-31T06:45:13;55571.53;;;-140.66;100.00
22335;BME280;11335;43.848;25.958;2023-07-31T06:47:58;55571.53;;;-140.66;100.00
22335;BME280;11335;43.848;25.958;2023-07-31T06:50:47;55571.53;;;-140.66;100.00
22335;BME280;11335;43.848;25.958;2023-07-31T06:53:32;55571.53;;;-140.66;100.00
22335;BME280;11335;43.848;25.958;2023-07-31T06:56:18;55571.53;;;-140.66;100.00
22335;BME280;11335;43.848;25.958;2023-07-31T06:59:04;55571.53;;;-140.66;100.00
22335;BME280;11335;43.848;25.958;2023-07-31T07:01:49;55571.53;;;-140.66;100.00
22335;BME280;11335;43.848;25.958;2023-07-31T07:04:35;55571.53;;;-140.66;100.00
22335;BME280;11335;43.848;25.958;2023-07-31T07:07:21;55571.53;;;-140.66;100.00
22335;BME280;11335;43.848;25.958;2023-07-31T07:10:07;55571.53;;;-140.66;100.00
22335;BME280;11335;43.848;25.958;2023-07-31T07:12:55;55571.53;;;-140.66;100.00
22335;BME280;11335;43.848;25.958;2023-07-31T07:15:41;55571.53;;;-140.66;100.00
22335;BME280;11335;43.848;25.958;2023-07-31T07:18:27;55571.53;;;-140.66;100.00
22335;BME280;11335;43.848;25.958;2023-07-31T07:21:13;55571.53;;;-140.66;100.00
22335;BME280;11335;43.848;25.958;2023-07-31T07:24:01;55571.53;;;-140.66;100.00
22335;BME280;11335;43.848;25.958;2023-07-31T07:26:46;55571.53;;;-140.66;100.00
22335;BME280;11335;43.848;25.958;2023-07-31T07:29:34;55571.53;;;-140.66;100.00
22335;BME280;11335;43.848;25.958;2023-07-31T07:32:20;55571.53;;;-140.66;100.00
22335;BME280;11335;43.848;25.958;2023-07-31T07:35:06;55571.53;;;-140.66;100.00
22335;BME280;11335;43.848;25.958;2023-07-31T07:37:52;55571.53;;;-140.66;100.00
22335;BME280;11335;43.848;25.958;2023-07-31T07:40:39;55571.53;;;-140.66;100.00
22335;BME280;11335;43.848;25.958;2023-07-31T07:43:25;55571.53;;;-140.66;100.00
22335;BME280;11335;43.848;25.958;2023-07-31T07:46:11;55571.53;;;-140.66;100.00
22335;BME280;11335;43.848;25.958;2023-07-31T07:48:57;55571.53;;;-140.66;100.00
22335;BME280;11335;43.848;25.958;2023-07-31T07:51:43;55571.53;;;-140.66;100.00
22335;BME280;11335;43.848;25.958;2023-07-31T07:54:28;55571.53;;;-140.66;100.00
22335;BME280;11335;43.848;25.958;2023-07-31T07:57:14;55571.53;;;-140.66;100.00
22335;BME280;11335;43.848;25.958;2023-07-31T08:00:00;55571.53;;;-140.66;100.00
22335;BME280;11335;43.848;25.958;2023-07-31T08:02:46;55571.53;;;-140.66;100.00
22335;BME280;11335;43.848;25.958;2023-07-31T08:05:31;55571.53;;;-140.66;100.00
22335;BME280;11335;43.848;25.958;2023-07-31T08:08:19;55571.53;;;-140.66;100.00
22335;BME280;11335;43.848;25.958;2023-07-31T08:11:05;55571.53;;;-140.66;100.00
22335;BME280;11335;43.848;25.958;2023-07-31T08:13:51;55571.53;;;-140.66;100.00
22335;BME280;11335;43.848;25.958;2023-07-31T08:16:37;55571.53;;;-140.66;100.00
22335;BME280;11335;43.848;25.958;2023-07-31T08:19:23;55571.53;;;-140.66;100.00
22335;BME280;11335;43.848;25.958;2023-07-31T08:22:08;55571.53;;;-140.66;100.00
22335;BME280;11335;43.848;25.958;2023-07-31T08:24:54;55571.53;;;-140.66;100.00
22335;BME280;11335;43.848;25.958;2023-07-31T08:27:44;55571.53;;;-140.66;100.00
22335;BME280;11335;43.848;25.958;2023-07-31T08:30:30;55571.53;;;-140.66;100.00
22335;BME280;11335;43.848;25.958;2023-07-31T08:33:16;55571.53;;;-140.66;100.00
22335;BME280;11335;43.848;25.958;2023-07-31T08:36:01;55571.53;;;-140.66;100.00
22335;BME280;11335;43.848;25.958;2023-07-31T08:38:47;55571.53;;;-140.66;100.00
22335;BME280;11335;43.848;25.958;2023-07-31T08:41:39;55571.53;;;-140.66;100.00
22335;BME280;11335;43.848;25.958;2023-07-31T08:44:25;55571.53;;;-140.66;100.00
22335;BME280;11335;43.848;25.958;2023-07-31T08:47:11;55571.53;;;-140.66;100.00
22335;BME280;11335;43.848;25.958;2023-07-31T08:49:58;55571.53;;;-140.66;100.00
22335;BME280;11335;43.848;25.958;2023-07-31T08:52:49;55571.53;;;-140.66;100.00
22335;BME280;11335;43.848;25.958;2023-07-31T08:55:37;55571.53;;;-140.66;100.00
22335;BME280;11335;43.848;25.958;2023-07-31T08:58:23;55571.53;;;-140.66;100.00
22335;BME280;11335;43.848;25.958;2023-07-31T09:01:09;55571.53;;;-140.66;100.00
22335;BME280;11335;43.848;25.958;2023-07-31T09:03:59;55571.53;;;-140.66;100.00
22335;BME280;11335;43.848;25.958;2023-07-31T09:06:47;55571.53;;;-140.66;100.00
22335;BME280;11335;43.848;25.958;2023-07-31T09:09:33;55571.53;;;-140.66;100.00
22335;BME280;11335;43.848;25.958;2023-07-31T09:12:19;55571.53;;;-140.66;100.00
22335;BME280;11335;43.848;25.958;2023-07-31T09:15:05;55571.53;;;-140.66;100.00
22335;BME280;11335;43.848;25.958;2023-07-31T09:17:59;55571.53;;;-140.66;100.00
22335;BME280;11335;43.848;25.958;2023-07-31T09:21:00;55571.53;;;-140.66;100.00
22335;BME280;11335;43.848;25.958;2023-07-31T09:23:47;55571.53;;;-140.66;100.00
22335;BME280;11335;43.848;25.958;2023-07-31T09:26:39;55571.53;;;-140.66;100.00
22335;BME280;11335;43.848;25.958;2023-07-31T09:29:26;55571.53;;;-140.66;100.00
22335;BME280;11335;43.848;25.958;2023-07-31T09:32:16;55571.53;;;-140.66;100.00
22335;BME280;11335;43.848;25.958;2023-07-31T09:35:22;55571.53;;;-140.66;100.00
22335;BME280;11335;43.848;25.958;2023-07-31T09:38:12;55571.53;;;-140.66;100.00
22335;BME280;11335;43.848;25.958;2023-07-31T09:40:58;55571.53;;;-140.66;100.00
22335;BME280;11335;43.848;25.958;2023-07-31T09:43:53;55571.53;;;-140.66;100.00
22335;BME280;11335;43.848;25.958;2023-07-31T09:46:39;55571.53;;;-140.66;100.00
22335;BME280;11335;43.848;25.958;2023-07-31T09:49:25;55571.53;;;-140.66;100.00
22335;BME280;11335;43.848;25.958;2023-07-31T09:52:13;55571.53;;;-140.66;100.00
22335;BME280;11335;43.848;25.958;2023-07-31T09:54:59;55571.53;;;-140.66;100.00
22335;BME280;11335;43.848;25.958;2023-07-31T09:57:49;55571.53;;;-140.66;100.00
22335;BME280;11335;43.848;25.958;2023-07-31T10:00:35;55571.53;;;-140.66;100.00
22335;BME280;11335;43.848;25.958;2023-07-31T10:03:21;55571.53;;;-140.66;100.00
22335;BME280;11335;43.848;25.958;2023-07-31T10:06:08;55571.53;;;-140.66;100.00
22335;BME280;11335;43.848;25.958;2023-07-31T10:08:55;55571.53;;;-140.66;100.00
22335;BME280;11335;43.848;25.958;2023-07-31T10:11:46;55571.53;;;-140.66;100.00
22335;BME280;11335;43.848;25.958;2023-07-31T10:14:36;55571.53;;;-140.66;100.00
22335;BME280;11335;43.848;25.958;2023-07-31T10:17:23;55571.53;;;-140.66;100.00
22335;BME280;11335;43.848;25.958;2023-07-31T10:20:09;55571.53;;;-140.66;100.00
22335;BME280;11335;43.848;25.958;2023-07-31T10:22:56;55571.53;;;-140.66;100.00
22335;BME280;11335;43.848;25.958;2023-07-31T10:25:49;55571.53;;;-140.66;100.00
22335;BME280;11335;43.848;25.958;2023-07-31T10:28:38;55571.53;;;-140.66;100.00
22335;BME280;11335;43.848;25.958;2023-07-31T10:31:25;55571.53;;;-140.66;100.00
22335;BME280;11335;43.848;25.958;2023-07-31T10:34:11;55571.53;;;-140.66;100.00
22335;BME280;11335;43.848;25.958;2023-07-31T10:37:22;55571.53;;;-140.66;100.00
22335;BME280;11335;43.848;25.958;2023-07-31T10:40:37;55571.53;;;-140.66;100.00
22335;BME280;11335;43.848;25.958;2023-07-31T10:43:24;55571.53;;;-140.66;100.00
22335;BME280;11335;43.848;25.958;2023-07-31T10:46:13;55571.53;;;-140.66;100.00
22335;BME280;11335;43.848;25.958;2023-07-31T10:49:02;55571.53;;;-140.66;100.00
22335;BME280;11335;43.848;25.958;2023-07-31T10:51:48;55571.53;;;-140.66;100.00
22335;BME280;11335;43.848;25.958;2023-07-31T10:54:35;55571.53;;;-140.66;100.00
22335;BME280;11335;43.848;25.958;2023-07-31T10:57:21;55571.53;;;-140.66;100.00
22335;BME280;11335;43.848;25.958;2023-07-31T11:03:13;55571.53;;;-140.66;100.00
22335;BME280;11335;43.848;25.958;2023-07-31T11:06:01;55571.53;;;-140.66;100.00
22335;BME280;11335;43.848;25.958;2023-07-31T11:08:50;55571.53;;;-140.66;100.00
22335;BME280;11335;43.848;25.958;2023-07-31T11:11:36;55571.53;;;-140.66;100.00
22335;BME280;11335;43.848;25.958;2023-07-31T11:14:22;55571.53;;;-140.66;100.00
22335;BME280;11335;43.848;25.958;2023-07-31T11:17:08;55571.53;;;-140.66;100.00
22335;BME280;11335;43.848;25.958;2023-07-31T11:19:54;55571.53;;;-140.66;100.00
22335;BME280;11335;43.848;25.958;2023-07-31T11:22:39;55571.53;;;-140.66;100.00
22335;BME280;11335;43.848;25.958;2023-07-31T11:25:28;55571.53;;;-140.66;100.00
22335;BME280;11335;43.848;25.958;2023-07-31T11:28:19;55571.53;;;-140.66;100.00
22335;BME280;11335;43.848;25.958;2023-07-31T11:31:04;55571.53;;;-140.66;100.00
22335;BME280;11335;43.848;25.958;2023-07-31T11:33:50;55571.53;;;-140.66;100.00
22335;BME280;11335;43.848;25.958;2023-07-31T11:36:54;55571.53;;;-140.66;100.00
22335;BME280;11335;43.848;25.958;2023-07-31T11:39:40;55571.53;;;-140.66;100.00
22335;BME280;11335;43.848;25.958;2023-07-31T11:42:26;55571.53;;;-140.66;100.00
22335;BME280;11335;43.848;25.958;2023-07-31T11:45:12;55571.53;;;-140.66;100.00
22335;BME280;11335;43.848;25.958;2023-07-31T11:48:00;55571.53;;;-140.66;100.00
22335;BME280;11335;43.848;25.958;2023-07-31T11:50:47;55571.53;;;-140.66;100.00
22335;BME280;11335;43.848;25.958;2023-07-31T11:56:24;55571.53;;;-140.66;100.00
22335;BME280;11335;43.848;25.958;2023-07-31T11:59:10;55571.53;;;-140.66;100.00
22335;BME280;11335;43.848;25.958;2023-07-31T12:01:58;55571.53;;;-140.66;100.00
22335;BME280;11335;43.848;25.958;2023-07-31T12:04:45;55571.53;;;-140.66;100.00
22335;BME280;11335;43.848;25.958;2023-07-31T12:07:49;55571.53;;;-140.66;100.00
22335;BME280;11335;43.848;25.958;2023-07-31T12:10:35;55571.53;;;-140.66;100.00
22335;BME280;11335;43.848;25.958;2023-07-31T12:13:23;55571.53;;;-140.66;100.00
22335;BME280;11335;43.848;25.958;2023-07-31T12:16:09;55571.53;;;-140.66;100.00
22335;BME280;11335;43.848;25.958;2023-07-31T12:18:55;55571.53;;;-140.66;100.00
22335;BME280;11335;43.848;25.958;2023-07-31T12:21:40;55571.53;;;-140.66;100.00
22335;BME280;11335;43.848;25.958;2023-07-31T12:24:27;55571.53;;;-140.66;100.00
22335;BME280;11335;43.848;25.958;2023-07-31T12:27:14;55571.53;;;-140.66;100.00
22335;BME280;11335;43.848;25.958;2023-07-31T12:30:00;55571.53;;;-140.66;100.00
22335;BME280;11335;43.848;25.958;2023-07-31T12:32:46;55571.53;;;-140.66;100.00
22335;BME280;11335;43.848;25.958;2023-07-31T12:35:36;55571.53;;;-140.66;100.00
22335;BME280;11335;43.848;25.958;2023-07-31T12:38:22;55571.53;;;-140.66;100.00
22335;BME280;11335;43.848;25.958;2023-07-31T12:41:08;55571.53;;;-140.66;100.00
22335;BME280;11335;43.848;25.958;2023-07-31T12:43:54;55571.53;;;-140.66;100.00
22335;BME280;11335;43.848;25.958;2023-07-31T12:46:40;55571.53;;;-140.66;100.00
22335;BME280;11335;43.848;25.958;2023-07-31T12:49:26;55571.53;;;-140.66;100.00
22335;BME280;11335;43.848;25.958;2023-07-31T12:52:11;55571.53;;;-140.66;100.00
22335;BME280;11335;43.848;25.958;2023-07-31T12:54:57;55571.53;;;-140.66;100.00
22335;BME280;11335;43.848;25.958;2023-07-31T12:57:43;55571.53;;;-140.66;100.00
22335;BME280;11335;43.848;25.958;2023-07-31T13:00:29;55571.53;;;-140.66;100.00
22335;BME280;11335;43.848;25.958;2023-07-31T13:03:15;55571.53;;;-140.66;100.00
22335;BME280;11335;43.848;25.958;2023-07-31T13:06:01;55571.53;;;-140.66;100.00
22335;BME280;11335;43.848;25.958;2023-07-31T13:08:47;55571.53;;;-140.66;100.00
22335;BME280;11335;43.848;25.958;2023-07-31T13:11:32;55571.53;;;-140.66;100.00
22335;BME280;11335;43.848;25.958;2023-07-31T13:14:18;55571.53;;;-140.66;100.00
22335;BME280;11335;43.848;25.958;2023-07-31T13:17:04;55571.53;;;-140.66;100.00
22335;BME280;11335;43.848;25.958;2023-07-31T13:19:50;55571.53;;;-140.66;100.00
22335;BME280;11335;43.848;25.958;2023-07-31T13:22:36;55571.53;;;-140.66;100.00
22335;BME280;11335;43.848;25.958;2023-07-31T13:25:21;55571.53;;;-140.66;100.00
22335;BME280;11335;43.848;25.958;2023-07-31T13:28:07;55571.53;;;-140.66;100.00
22335;BME280;11335;43.848;25.958;2023-07-31T13:30:53;55571.53;;;-140.66;100.00
22335;BME280;11335;43.848;25.958;2023-07-31T13:33:38;55571.53;;;-140.66;100.00
22335;BME280;11335;43.848;25.958;2023-07-31T13:36:24;55571.53;;;-140.66;100.00
22335;BME280;11335;43.848;25.958;2023-07-31T13:39:10;55571.53;;;-140.66;100.00
22335;BME280;11335;43.848;25.958;2023-07-31T13:41:56;55571.53;;;-140.66;100.00
22335;BME280;11335;43.848;25.958;2023-07-31T13:44:42;55571.53;;;-140.66;100.00
22335;BME280;11335;43.848;25.958;2023-07-31T13:47:27;55571.53;;;-140.66;100.00
22335;BME280;11335;43.848;25.958;2023-07-31T13:50:13;55571.53;;;-140.66;100.00
22335;BME280;11335;43.848;25.958;2023-07-31T13:52:59;55571.53;;;-140.66;100.00
22335;BME280;11335;43.848;25.958;2023-07-31T13:55:45;55571.53;;;-140.66;100.00
22335;BME280;11335;43.848;25.958;2023-07-31T13:58:33;55571.53;;;-140.66;100.00
22335;BME280;11335;43.848;25.958;2023-07-31T14:01:19;55571.53;;;-140.66;100.00
22335;BME280;11335;43.848;25.958;2023-07-31T14:04:04;55571.53;;;-140.66;100.00
22335;BME280;11335;43.848;25.958;2023-07-31T14:06:51;55571.53;;;-140.66;100.00
22335;BME280;11335;43.848;25.958;2023-07-31T14:09:36;55571.53;;;-140.66;100.00
22335;BME280;11335;43.848;25.958;2023-07-31T14:12:22;55571.53;;;-140.66;100.00
22335;BME280;11335;43.848;25.958;2023-07-31T14:15:08;55571.53;;;-140.66;100.00
22335;BME280;11335;43.848;25.958;2023-07-31T14:17:54;55571.53;;;-140.66;100.00
22335;BME280;11335;43.848;25.958;2023-07-31T14:20:40;55571.53;;;-140.66;100.00